ADDS METAR Data INFO
IDs: Format: Raw Decoded Include TAF

Data at: 0253 UTC 21 Oct 2017

K4BM 210230Z AUTO 21009G17KT 10SM CLR 03/M10 A2994 RMK AO2
K4BM 210212Z AUTO 22007KT 10SM CLR 03/M10 A2995 RMK AO2
K4BM 210153Z AUTO 22007KT 10SM CLR 04/M10 A2995 RMK AO2
K4BM 210129Z AUTO 22009KT 10SM CLR 05/M09 A2995 RMK AO2
K4BM 210111Z AUTO 22006KT 10SM CLR 05/M10 A2995 RMK AO2
K4BM 210054Z AUTO 21008G14KT 10SM CLR 05/M10 A2995 RMK AO2
K4BM 210030Z AUTO 22010G16KT 10SM CLR 06/M13 A2995 RMK AO2
K4BM 210012Z AUTO 22014G22KT 10SM CLR 07/M13 A2995 RMK AO2
K4BM 202354Z AUTO 22008G20KT 10SM CLR 08/M13 A2996 RMK AO2
K4BM 202330Z AUTO 22010G19KT 190V250 10SM CLR 09/M11 A2995 RMK AO2
K4BM 202312Z AUTO 22016G24KT 10SM CLR 10/M11 A2995 RMK AO2
K4BM 202254Z AUTO 21008G23KT 180V240 10SM CLR 10/M11 A2996 RMK AO2
K4BM 202230Z AUTO 22016G24KT 10SM CLR 10/M11 A2996 RMK AO2
K4BM 202212Z AUTO 21013G22KT 100V240 10SM CLR 10/M11 A2997 RMK AO2
K4BM 202154Z AUTO 22016G29KT 10SM CLR 10/M11 A2996 RMK AO2
K4BM 202130Z AUTO 22020G28KT 10SM SCT060 SCT080 10/M11 A2996 RMK AO2
K4BM 202112Z AUTO 22011G22KT 190V250 10SM BKN060 OVC080 09/M08 A2997 RMK AO2
K4BM 202053Z AUTO 20009G19KT 170V240 10SM BKN060 BKN075 10/M07 A2999 RMK AO2
K4BM 202030Z AUTO 20007G19KT 10SM SCT060 SCT075 10/M07 A2999 RMK AO2
K4BM 202012Z AUTO 23017G25KT 10SM CLR 11/M07 A2997 RMK AO2
K4BM 201952Z AUTO 22013G24KT 10SM CLR 11/M06 A2998 RMK AO2
K4BM 201929Z AUTO 23012G23KT 10SM CLR 10/M06 A2999 RMK AO2
K4BM 201911Z AUTO 23012G22KT 10SM CLR 10/M05 A3000 RMK AO2
K4BM 201854Z AUTO 22014G26KT 10SM CLR 10/M06 A3001 RMK AO2
K4BM 201830Z AUTO 22016G27KT 10SM CLR 09/M06 A3001 RMK AO2
K4BM 201812Z AUTO 22012G26KT 10SM CLR 08/M05 A3003 RMK AO2
K4BM 201754Z AUTO 23015G23KT 10SM CLR 08/M06 A3003 RMK AO2
K4BM 201730Z AUTO 22014G24KT 10SM CLR 07/M05 A3006 RMK AO2
K4BM 201712Z AUTO 22013G23KT 10SM SCT045 07/M03 A3007 RMK AO2
K4BM 201654Z AUTO 22011G20KT 180V250 10SM SCT047 06/M03 A3008 RMK AO2
K4BM 201630Z AUTO 22012G19KT 10SM CLR 05/M03 A3009 RMK AO2
K4BM 201612Z AUTO 22010G18KT 10SM CLR 04/M03 A3010 RMK AO2
K4BM 201554Z AUTO 22012G22KT 10SM CLR 03/M03 A3010 RMK AO2
K4BM 201530Z AUTO 23011G21KT 10SM CLR 02/M04 A3010 RMK AO2
K4BM 201512Z AUTO 22014G23KT 10SM CLR 02/M04 A3010 RMK AO2
K4BM 201454Z AUTO 24015G21KT 10SM CLR 01/M05 A3011 RMK AO2
K4BM 201430Z AUTO 23014G19KT 10SM CLR 01/M05 A3012 RMK AO2
K4BM 201412Z AUTO 23013G18KT 10SM SCT095 01/M05 A3012 RMK AO2
K4BM 201354Z AUTO 23013G19KT 10SM CLR 01/M05 A3012 RMK AO2
K4BM 201330Z AUTO 24014G23KT 10SM CLR 01/M05 A3012 RMK AO2
K4BM 201312Z AUTO 24014G22KT 10SM CLR 01/M05 A3011 RMK AO2
K4BM 201248Z AUTO 24014G18KT 10SM CLR 02/M06 A3012 RMK AO2
K4BM 201230Z AUTO 24010G19KT 10SM CLR 02/M05 A3012 RMK AO2
K4BM 201212Z AUTO 25009G17KT 10SM CLR 02/M05 A3013 RMK AO2
K4BM 201154Z AUTO 24015G25KT 10SM CLR 02/M06 A3013 RMK AO2
K4BM 201130Z AUTO 25011G18KT 10SM CLR 02/M07 A3014 RMK AO2
K4BM 201112Z AUTO 24010G15KT 10SM CLR 02/M06 A3014 RMK AO2
K4BM 201054Z AUTO 24009G17KT 10SM CLR 02/M07 A3015 RMK AO2
K4BM 201030Z AUTO 24012G22KT 10SM CLR 03/M07 A3015 RMK AO2
K4BM 201012Z AUTO 24014G21KT 10SM CLR 02/M09 A3015 RMK AO2
K4BM 200951Z AUTO 24015G21KT 10SM CLR 03/M09 A3016 RMK AO2
K4BM 200933Z AUTO 25012G20KT 10SM CLR 03/M09 A3017 RMK AO2
K4BM 200909Z AUTO 24011G16KT 10SM CLR 04/M10 A3019 RMK AO2
K4BM 200848Z AUTO 25009G17KT 10SM CLR 05/M08 A3019 RMK AO2
K4BM 200830Z AUTO 25010G14KT 10SM CLR 05/M09 A3020 RMK AO2
K4BM 200813Z AUTO 25007KT 10SM CLR 05/M10 A3021 RMK AO2
K4BM 200748Z AUTO 26006KT 10SM CLR 04/M11 A3022 RMK AO2
K4BM 200730Z AUTO 25007KT 10SM CLR 04/M11 A3023 RMK AO2
K4BM 200712Z AUTO 25006KT 10SM CLR 05/M11 A3023 RMK AO2
K4BM 200654Z AUTO 25008KT 10SM CLR 04/M11 A3024 RMK AO2
K4BM 200630Z AUTO 24012G17KT 10SM CLR 05/M11 A3024 RMK AO2
K4BM 200612Z AUTO 24011G17KT 10SM CLR 05/M11 A3024 RMK AO2
K4BM 200554Z AUTO 24014G19KT 10SM CLR 05/M10 A3025 RMK AO2
K4BM 200530Z AUTO 23013KT 10SM SCT120 05/M09 A3026 RMK AO2
K4BM 200512Z AUTO 23013G22KT 10SM SCT120 05/M09 A3026 RMK AO2
K4BM 200454Z AUTO 23012G19KT 10SM SCT120 06/M10 A3027 RMK AO2
K4BM 200430Z AUTO 22010KT 10SM SCT120 06/M10 A3028 RMK AO2
K4BM 200412Z AUTO 22010G15KT 10SM BKN120 06/M10 A3028 RMK AO2
K4BM 200354Z AUTO 21007KT 10SM BKN120 06/M10 A3030 RMK AO2
K4BM 200330Z AUTO 22005KT 10SM BKN120 06/M10 A3030 RMK AO2
K4BM 200312Z AUTO 22008KT 10SM BKN120 06/M11 A3030 RMK AO2
K4BM 200254Z AUTO 21008KT 10SM SCT120 06/M11 A3030 RMK AO2
K4BM 200230Z AUTO 20007KT 040V230 10SM CLR 06/M12 A3030 RMK AO2
K4BM 200212Z AUTO 20005KT 10SM CLR 06/M12 A3030 RMK AO2
K4BM 200153Z AUTO 21008KT 10SM SCT120 07/M12 A3030 RMK AO2
K4BM 200129Z AUTO 21009G14KT 10SM CLR 07/M13 A3030 RMK AO2
K4BM 200112Z AUTO 21007KT 10SM CLR 07/M13 A3031 RMK AO2
K4BM 200054Z AUTO 21008G14KT 10SM CLR 07/M13 A3031 RMK AO2
K4BM 200030Z AUTO 20008KT 10SM CLR 07/M13 A3031 RMK AO2
K4BM 200012Z AUTO 21006KT 10SM CLR 08/M13 A3031 RMK AO2
K4BM 192354Z AUTO 21006KT 10SM CLR 09/M13 A3032 RMK AO2
K4BM 192330Z AUTO 21005KT 10SM CLR 10/M13 A3033 RMK AO2
K4BM 192312Z AUTO 20006KT 170V230 10SM CLR 10/M13 A3033 RMK AO2
K4BM 192253Z AUTO 00000KT 10SM CLR 11/M15 A3033 RMK AO2
K4BM 192229Z AUTO 00000KT 10SM CLR 11/M13 A3034 RMK AO2
K4BM 192211Z AUTO 22004KT 10SM CLR 12/M13 A3034 RMK AO2
K4BM 192153Z AUTO 00000KT 10SM CLR 11/M14 A3035 RMK AO2
K4BM 192129Z AUTO 22003KT 10SM CLR 11/M13 A3035 RMK AO2
K4BM 192111Z AUTO 21006KT 10SM CLR 11/M14 A3035 RMK AO2
K4BM 192054Z AUTO 23006KT 10SM CLR 12/M14 A3035 RMK AO2 LTG DSNT NW
K4BM 192030Z AUTO 21005KT 10SM CLR 11/M14 A3036 RMK AO2
K4BM 192012Z AUTO 23006KT 10SM CLR 12/M14 A3037 RMK AO2
K4BM 191948Z AUTO 21005KT 10SM CLR 12/M13 A3038 RMK AO2
K4BM 191930Z AUTO 21007KT 10SM CLR 11/M13 A3039 RMK AO2
K4BM 191912Z AUTO 23007KT 10SM CLR 11/M13 A3040 RMK AO2
K4BM 191854Z AUTO 22006KT 10SM CLR 11/M13 A3040 RMK AO2
K4BM 191830Z AUTO 23005KT 10SM CLR 10/M14 A3042 RMK AO2
K4BM 191812Z AUTO 22006KT 10SM CLR 09/M14 A3043 RMK AO2
K4BM 191754Z AUTO 24006KT 10SM CLR 10/M15 A3043 RMK AO2
K4BM 191730Z AUTO 23006KT 10SM CLR 09/M15 A3043 RMK AO2
K4BM 191712Z AUTO 25007KT 10SM CLR 08/M16 A3044 RMK AO2
K4BM 191654Z AUTO 24007KT 10SM CLR 08/M16 A3044 RMK AO2
K4BM 191630Z AUTO 25008KT 10SM CLR 07/M16 A3045 RMK AO2
K4BM 191612Z AUTO 24006KT 10SM CLR 07/M17 A3045 RMK AO2
K4BM 191553Z AUTO 25007KT 10SM CLR 07/M17 A3045 RMK AO2
K4BM 191530Z AUTO 25008KT 10SM CLR 06/M18 A3045 RMK AO2
K4BM 191512Z AUTO 25008G14KT 10SM CLR 06/M18 A3045 RMK AO2
K4BM 191454Z AUTO 24008KT 10SM CLR 05/M18 A3045 RMK AO2